sensor_id;sensor_type;location;lat;lon;timestamp;pressure;altitude;pressure_sealevel;temperature;humidity
31225;BME280;17847;31.524;74.366;2023-12-04T00:01:22;99009.19;;;14.11;nan
31225;BME280;17847;31.524;74.366;2023-12-04T00:03:52;99012.91;;;13.97;nan
31225;BME280;17847;31.524;74.366;2023-12-04T00:06:22;99019.81;;;14.24;nan
31225;BME280;17847;31.524;74.366;2023-12-04T00:08:52;99014.47;;;14.31;nan
31225;BME280;17847;31.524;74.366;2023-12-04T00:11:22;99020.81;;;14.30;nan
31225;BME280;17847;31.524;74.366;2023-12-04T00:13:51;99026.38;;;14.28;nan
31225;BME280;17847;31.524;74.366;2023-12-04T00:16:21;99028.84;;;14.36;nan
31225;BME280;17847;31.524;74.366;2023-12-04T00:18:51;99037.63;;;14.50;nan
31225;BME280;17847;31.524;74.366;2023-12-04T00:21:20;99039.47;;;14.50;nan
31225;BME280;17847;31.524;74.366;2023-12-04T00:23:50;99037.00;;;14.55;nan
31225;BME280;17847;31.524;74.366;2023-12-04T00:26:19;99030.84;;;14.48;nan
31225;BME280;17847;31.524;74.366;2023-12-04T00:28:49;99031.09;;;14.39;nan
31225;BME280;17847;31.524;74.366;2023-12-04T00:31:19;99028.66;;;14.38;nan
31225;BME280;17847;31.524;74.366;2023-12-04T00:33:48;99027.81;;;14.37;nan
31225;BME280;17847;31.524;74.366;2023-12-04T00:36:18;99038.03;;;14.47;nan
31225;BME280;17847;31.524;74.366;2023-12-04T00:38:49;99037.03;;;14.42;nan
31225;BME280;17847;31.524;74.366;2023-12-04T00:41:18;99035.19;;;14.35;nan
31225;BME280;17847;31.524;74.366;2023-12-04T00:43:47;99044.22;;;14.41;nan
31225;BME280;17847;31.524;74.366;2023-12-04T00:46:18;99034.38;;;14.28;nan
31225;BME280;17847;31.524;74.366;2023-12-04T00:48:48;99040.09;;;14.32;nan
31225;BME280;17847;31.524;74.366;2023-12-04T00:51:18;99042.56;;;14.33;nan
31225;BME280;17847;31.524;74.366;2023-12-04T00:53:47;99042.16;;;14.36;nan
31225;BME280;17847;31.524;74.366;2023-12-04T00:56:17;99045.84;;;14.35;nan
31225;BME280;17847;31.524;74.366;2023-12-04T00:58:48;99036.59;;;14.31;nan
31225;BME280;17847;31.524;74.366;2023-12-04T01:01:18;99043.81;;;14.37;nan
31225;BME280;17847;31.524;74.366;2023-12-04T01:03:48;99046.69;;;14.36;nan
31225;BME280;17847;31.524;74.366;2023-12-04T01:06:22;99051.19;;;14.35;nan
31225;BME280;17847;31.524;74.366;2023-12-04T01:08:52;99060.78;;;14.43;nan
31225;BME280;17847;31.524;74.366;2023-12-04T01:11:22;99056.91;;;14.39;nan
31225;BME280;17847;31.524;74.366;2023-12-04T01:13:52;99075.78;;;14.37;nan
31225;BME280;17847;31.524;74.366;2023-12-04T01:16:22;99071.88;;;14.40;nan
31225;BME280;17847;31.524;74.366;2023-12-04T01:18:51;99081.31;;;14.36;nan
31225;BME280;17847;31.524;74.366;2023-12-04T01:21:22;99079.25;;;14.31;nan
31225;BME280;17847;31.524;74.366;2023-12-04T01:23:51;99089.91;;;14.31;nan
31225;BME280;17847;31.524;74.366;2023-12-04T01:26:21;99091.34;;;14.41;nan
31225;BME280;17847;31.524;74.366;2023-12-04T01:28:50;99096.47;;;14.49;nan
31225;BME280;17847;31.524;74.366;2023-12-04T01:31:20;99089.94;;;14.38;nan
31225;BME280;17847;31.524;74.366;2023-12-04T01:33:50;99099.78;;;14.37;nan
31225;BME280;17847;31.524;74.366;2023-12-04T01:36:19;99105.31;;;14.43;nan
31225;BME280;17847;31.524;74.366;2023-12-04T01:38:48;99095.22;;;14.45;nan
31225;BME280;17847;31.524;74.366;2023-12-04T01:41:18;99101.78;;;14.49;nan
31225;BME280;17847;31.524;74.366;2023-12-04T01:43:48;99104.25;;;14.44;nan
31225;BME280;17847;31.524;74.366;2023-12-04T01:46:17;99105.31;;;14.43;nan
31225;BME280;17847;31.524;74.366;2023-12-04T01:48:47;99116.16;;;14.41;nan
31225;BME280;17847;31.524;74.366;2023-12-04T01:51:19;99112.63;;;14.34;nan
31225;BME280;17847;31.524;74.366;2023-12-04T01:53:50;99123.13;;;14.35;nan
31225;BME280;17847;31.524;74.366;2023-12-04T01:56:20;99126.41;;;14.37;nan
31225;BME280;17847;31.524;74.366;2023-12-04T01:58:49;99131.13;;;14.35;nan
31225;BME280;17847;31.524;74.366;2023-12-04T02:01:20;99126.00;;;14.41;nan
31225;BME280;17847;31.524;74.366;2023-12-04T02:03:50;99126.59;;;14.49;nan
31225;BME280;17847;31.524;74.366;2023-12-04T02:06:20;99132.13;;;14.48;nan
31225;BME280;17847;31.524;74.366;2023-12-04T02:08:49;99132.53;;;14.45;nan
31225;BME280;17847;31.524;74.366;2023-12-04T02:11:19;99130.69;;;14.38;nan
31225;BME280;17847;31.524;74.366;2023-12-04T02:13:48;99139.69;;;14.31;nan
31225;BME280;17847;31.524;74.366;2023-12-04T02:16:18;99140.53;;;14.25;nan
31225;BME280;17847;31.524;74.366;2023-12-04T02:18:49;99142.16;;;14.32;nan
31225;BME280;17847;31.524;74.366;2023-12-04T02:21:18;99149.97;;;14.54;nan
31225;BME280;17847;31.524;74.366;2023-12-04T02:23:52;99150.75;;;14.74;nan
31225;BME280;17847;31.524;74.366;2023-12-04T02:26:32;99159.38;;;14.69;nan
31225;BME280;17847;31.524;74.366;2023-12-04T02:29:08;99157.91;;;14.80;nan
31225;BME280;17847;31.524;74.366;2023-12-04T02:31:41;99161.97;;;15.02;nan
31225;BME280;17847;31.524;74.366;2023-12-04T02:34:13;99164.41;;;15.10;nan
31225;BME280;17847;31.524;74.366;2023-12-04T02:36:44;99166.59;;;15.33;nan
31225;BME280;17847;31.524;74.366;2023-12-04T02:39:14;99175.38;;;15.40;nan
31225;BME280;17847;31.524;74.366;2023-12-04T02:41:44;99172.53;;;15.35;nan
31225;BME280;17847;31.524;74.366;2023-12-04T02:44:13;99183.66;;;15.25;nan
31225;BME280;17847;31.524;74.366;2023-12-04T02:46:43;99185.47;;;15.38;nan
31225;BME280;17847;31.524;74.366;2023-12-04T02:49:12;99190.34;;;15.54;nan
31225;BME280;17847;31.524;74.366;2023-12-04T02:51:42;99192.75;;;15.69;nan
31225;BME280;17847;31.524;74.366;2023-12-04T02:54:11;99200.31;;;15.72;nan
31225;BME280;17847;31.524;74.366;2023-12-04T02:56:41;99199.34;;;15.66;nan
31225;BME280;17847;31.524;74.366;2023-12-04T02:59:10;99203.59;;;15.74;nan
31225;BME280;17847;31.524;74.366;2023-12-04T03:01:40;99199.59;;;15.52;nan
31225;BME280;17847;31.524;74.366;2023-12-04T03:04:09;99212.53;;;15.48;nan
31225;BME280;17847;31.524;74.366;2023-12-04T03:06:39;99218.66;;;15.62;nan
31225;BME280;17847;31.524;74.366;2023-12-04T03:09:08;99216.88;;;15.87;nan
31225;BME280;17847;31.524;74.366;2023-12-04T03:11:41;99224.19;;;16.05;nan
31225;BME280;17847;31.524;74.366;2023-12-04T03:14:11;99221.78;;;15.97;nan
31225;BME280;17847;31.524;74.366;2023-12-04T03:16:40;99221.38;;;16.25;nan
31225;BME280;17847;31.524;74.366;2023-12-04T03:19:09;99231.19;;;16.37;nan
31225;BME280;17847;31.524;74.366;2023-12-04T03:21:39;99233.41;;;16.40;nan
31225;BME280;17847;31.524;74.366;2023-12-04T03:24:08;99238.28;;;16.50;nan
31225;BME280;17847;31.524;74.366;2023-12-04T03:26:38;99241.53;;;16.58;nan
31225;BME280;17847;31.524;74.366;2023-12-04T03:29:07;99249.81;;;16.75;nan
31225;BME280;17847;31.524;74.366;2023-12-04T03:31:38;99250.53;;;16.64;nan
31225;BME280;17847;31.524;74.366;2023-12-04T03:34:08;99252.72;;;16.74;nan
31225;BME280;17847;31.524;74.366;2023-12-04T03:36:38;99254.34;;;16.75;nan
31225;BME280;17847;31.524;74.366;2023-12-04T03:39:07;99253.13;;;16.77;nan
31225;BME280;17847;31.524;74.366;2023-12-04T03:41:37;99252.38;;;16.88;nan
31225;BME280;17847;31.524;74.366;2023-12-04T03:44:06;99257.56;;;17.26;nan
31225;BME280;17847;31.524;74.366;2023-12-04T03:46:36;99266.47;;;17.81;nan
31225;BME280;17847;31.524;74.366;2023-12-04T03:49:05;99274.28;;;18.42;nan
31225;BME280;17847;31.524;74.366;2023-12-04T03:51:35;99272.19;;;19.33;nan
31225;BME280;17847;31.524;74.366;2023-12-04T03:54:04;99282.50;;;19.99;nan
31225;BME280;17847;31.524;74.366;2023-12-04T03:56:34;99282.94;;;20.07;nan
31225;BME280;17847;31.524;74.366;2023-12-04T03:59:03;99287.84;;;20.84;nan
31225;BME280;17847;31.524;74.366;2023-12-04T04:01:33;99289.69;;;21.72;nan
31225;BME280;17847;31.524;74.366;2023-12-04T04:04:02;99300.44;;;21.50;nan
31225;BME280;17847;31.524;74.366;2023-12-04T04:06:32;99303.88;;;21.45;nan
31225;BME280;17847;31.524;74.366;2023-12-04T04:09:02;99309.34;;;21.50;nan
31225;BME280;17847;31.524;74.366;2023-12-04T04:11:31;99317.75;;;22.14;nan
31225;BME280;17847;31.524;74.366;2023-12-04T04:14:01;99311.25;;;22.64;nan
31225;BME280;17847;31.524;74.366;2023-12-04T04:16:30;99321.19;;;22.58;nan
31225;BME280;17847;31.524;74.366;2023-12-04T04:19:00;99330.78;;;22.22;nan
31225;BME280;17847;31.524;74.366;2023-12-04T04:21:30;99332.88;;;22.15;nan
31225;BME280;17847;31.524;74.366;2023-12-04T04:23:59;99328.56;;;22.41;nan
31225;BME280;17847;31.524;74.366;2023-12-04T04:26:29;99333.59;;;22.32;nan
31225;BME280;17847;31.524;74.366;2023-12-04T04:28:58;99332.25;;;22.35;nan
31225;BME280;17847;31.524;74.366;2023-12-04T04:31:28;99334.31;;;22.50;nan
31225;BME280;17847;31.524;74.366;2023-12-04T04:33:58;99338.38;;;22.25;nan
31225;BME280;17847;31.524;74.366;2023-12-04T04:36:27;99338.47;;;22.35;nan
31225;BME280;17847;31.524;74.366;2023-12-04T04:38:57;99328.63;;;22.46;nan
31225;BME280;17847;31.524;74.366;2023-12-04T04:41:27;99340.13;;;22.15;nan
31225;BME280;17847;31.524;74.366;2023-12-04T04:43:56;99330.72;;;21.57;nan
31225;BME280;17847;31.524;74.366;2023-12-04T04:46:26;99329.16;;;21.61;nan
31225;BME280;17847;31.524;74.366;2023-12-04T04:48:57;99334.06;;;21.64;nan
31225;BME280;17847;31.524;74.366;2023-12-04T04:51:27;99335.50;;;21.50;nan
31225;BME280;17847;31.524;74.366;2023-12-04T04:53:58;99334.81;;;21.43;nan
31225;BME280;17847;31.524;74.366;2023-12-04T04:56:27;99330.41;;;21.03;nan
31225;BME280;17847;31.524;74.366;2023-12-04T04:58:57;99341.16;;;21.15;nan
31225;BME280;17847;31.524;74.366;2023-12-04T05:01:27;99334.84;;;21.26;nan
31225;BME280;17847;31.524;74.366;2023-12-04T05:03:56;99332.88;;;21.05;nan
31225;BME280;17847;31.524;74.366;2023-12-04T05:06:26;99341.41;;;21.14;nan
31225;BME280;17847;31.524;74.366;2023-12-04T05:08:56;99342.63;;;20.78;nan
31225;BME280;17847;31.524;74.366;2023-12-04T05:11:26;99338.91;;;20.79;nan
31225;BME280;17847;31.524;74.366;2023-12-04T05:13:55;99328.72;;;20.97;nan
31225;BME280;17847;31.524;74.366;2023-12-04T05:16:25;99337.59;;;20.98;nan
31225;BME280;17847;31.524;74.366;2023-12-04T05:18:54;99332.28;;;20.70;nan
31225;BME280;17847;31.524;74.366;2023-12-04T05:21:24;99339.34;;;20.59;nan
31225;BME280;17847;31.524;74.366;2023-12-04T05:23:55;99325.84;;;20.71;nan
31225;BME280;17847;31.524;74.366;2023-12-04T05:26:27;99328.75;;;20.69;nan
31225;BME280;17847;31.524;74.366;2023-12-04T05:28:57;99324.03;;;20.76;nan
31225;BME280;17847;31.524;74.366;2023-12-04T05:31:26;99324.84;;;20.77;nan
31225;BME280;17847;31.524;74.366;2023-12-04T05:33:56;99319.00;;;20.80;nan
31225;BME280;17847;31.524;74.366;2023-12-04T05:36:26;99311.47;;;20.65;nan
31225;BME280;17847;31.524;74.366;2023-12-04T05:38:56;99317.09;;;20.80;nan
31225;BME280;17847;31.524;74.366;2023-12-04T05:41:28;99309.03;;;20.80;nan
31225;BME280;17847;31.524;74.366;2023-12-04T05:43:57;99315.50;;;20.51;nan
31225;BME280;17847;31.524;74.366;2023-12-04T05:46:27;99313.44;;;20.70;nan
31225;BME280;17847;31.524;74.366;2023-12-04T05:48:56;99309.03;;;20.80;nan
31225;BME280;17847;31.524;74.366;2023-12-04T05:51:26;99310.00;;;20.91;nan
31225;BME280;17847;31.524;74.366;2023-12-04T05:53:57;99316.22;;;21.08;nan
31225;BME280;17847;31.524;74.366;2023-12-04T05:56:27;99308.84;;;21.15;nan
31225;BME280;17847;31.524;74.366;2023-12-04T05:58:56;99310.44;;;21.16;nan
31225;BME280;17847;31.524;74.366;2023-12-04T06:01:26;99300.88;;;21.25;nan
31225;BME280;17847;31.524;74.366;2023-12-04T06:03:56;99296.06;;;21.11;nan
31225;BME280;17847;31.524;74.366;2023-12-04T06:06:26;99292.16;;;21.01;nan
31225;BME280;17847;31.524;74.366;2023-12-04T06:08:56;99298.41;;;21.07;nan
31225;BME280;17847;31.524;74.366;2023-12-04T06:11:25;99291.47;;;21.11;nan
31225;BME280;17847;31.524;74.366;2023-12-04T06:13:55;99292.91;;;21.14;nan
31225;BME280;17847;31.524;74.366;2023-12-04T06:16:24;99291.59;;;21.16;nan
31225;BME280;17847;31.524;74.366;2023-12-04T06:18:54;99285.53;;;21.09;nan
31225;BME280;17847;31.524;74.366;2023-12-04T06:21:24;99282.75;;;21.04;nan
31225;BME280;17847;31.524;74.366;2023-12-04T06:23:53;99292.22;;;21.40;nan
31225;BME280;17847;31.524;74.366;2023-12-04T06:26:23;99277.50;;;21.47;nan
31225;BME280;17847;31.524;74.366;2023-12-04T06:28:53;99281.97;;;21.59;nan
31225;BME280;17847;31.524;74.366;2023-12-04T06:31:24;99275.25;;;21.61;nan
31225;BME280;17847;31.524;74.366;2023-12-04T06:33:53;99280.75;;;21.49;nan
31225;BME280;17847;31.524;74.366;2023-12-04T06:36:24;99274.03;;;21.52;nan
31225;BME280;17847;31.524;74.366;2023-12-04T06:38:55;99280.19;;;21.69;nan
31225;BME280;17847;31.524;74.366;2023-12-04T06:41:25;99280.84;;;21.76;nan
31225;BME280;17847;31.524;74.366;2023-12-04T06:43:55;99275.00;;;21.63;nan
31225;BME280;17847;31.524;74.366;2023-12-04T06:46:27;99282.22;;;21.79;nan
31225;BME280;17847;31.524;74.366;2023-12-04T06:49:00;99274.06;;;21.74;nan
31225;BME280;17847;31.524;74.366;2023-12-04T06:51:31;99271.94;;;21.76;nan
31225;BME280;17847;31.524;74.366;2023-12-04T06:54:00;99263.28;;;21.74;nan
31225;BME280;17847;31.524;74.366;2023-12-04T06:56:30;99256.56;;;21.76;nan
31225;BME280;17847;31.524;74.366;2023-12-04T06:58:59;99268.66;;;21.74;nan
31225;BME280;17847;31.524;74.366;2023-12-04T07:01:29;99265.13;;;21.68;nan
31225;BME280;17847;31.524;74.366;2023-12-04T07:03:58;99256.81;;;21.53;nan
31225;BME280;17847;31.524;74.366;2023-12-04T07:06:28;99249.09;;;21.40;nan
31225;BME280;17847;31.524;74.366;2023-12-04T07:08:57;99244.03;;;21.65;nan
31225;BME280;17847;31.524;74.366;2023-12-04T07:11:27;99248.44;;;21.93;nan
31225;BME280;17847;31.524;74.366;2023-12-04T07:13:57;99239.84;;;21.96;nan
31225;BME280;17847;31.524;74.366;2023-12-04T07:16:26;99241.41;;;21.70;nan
31225;BME280;17847;31.524;74.366;2023-12-04T07:18:56;99238.25;;;21.78;nan
31225;BME280;17847;31.524;74.366;2023-12-04T07:21:26;99238.53;;;21.55;nan
31225;BME280;17847;31.524;74.366;2023-12-04T07:23:56;99228.06;;;21.59;nan
31225;BME280;17847;31.524;74.366;2023-12-04T07:26:25;99230.91;;;21.74;nan
31225;BME280;17847;31.524;74.366;2023-12-04T07:28:55;99228.94;;;21.91;nan
31225;BME280;17847;31.524;74.366;2023-12-04T07:31:24;99216.38;;;21.75;nan
31225;BME280;17847;31.524;74.366;2023-12-04T07:33:55;99213.69;;;21.75;nan
31225;BME280;17847;31.524;74.366;2023-12-04T07:36:26;99211.78;;;21.97;nan
31225;BME280;17847;31.524;74.366;2023-12-04T07:38:55;99215.56;;;21.96;nan
31225;BME280;17847;31.524;74.366;2023-12-04T07:41:25;99214.09;;;22.10;nan
31225;BME280;17847;31.524;74.366;2023-12-04T07:43:54;99218.06;;;22.03;nan
31225;BME280;17847;31.524;74.366;2023-12-04T07:46:24;99205.69;;;22.07;nan
31225;BME280;17847;31.524;74.366;2023-12-04T07:48:55;99211.56;;;21.99;nan
31225;BME280;17847;31.524;74.366;2023-12-04T07:51:24;99207.00;;;22.04;nan
31225;BME280;17847;31.524;74.366;2023-12-04T07:53:54;99206.88;;;22.16;nan
31225;BME280;17847;31.524;74.366;2023-12-04T07:56:23;99201.25;;;22.22;nan
31225;BME280;17847;31.524;74.366;2023-12-04T07:58:52;99204.06;;;22.32;nan
31225;BME280;17847;31.524;74.366;2023-12-04T08:01:23;99199.31;;;22.18;nan
31225;BME280;17847;31.524;74.366;2023-12-04T08:03:53;99202.84;;;22.18;nan
31225;BME280;17847;31.524;74.366;2023-12-04T08:06:23;99195.09;;;22.27;nan
31225;BME280;17847;31.524;74.366;2023-12-04T08:08:53;99190.84;;;22.36;nan
31225;BME280;17847;31.524;74.366;2023-12-04T08:11:23;99187.03;;;22.32;nan
31225;BME280;17847;31.524;74.366;2023-12-04T08:13:52;99192.25;;;22.38;nan
31225;BME280;17847;31.524;74.366;2023-12-04T08:16:22;99180.47;;;22.23;nan
31225;BME280;17847;31.524;74.366;2023-12-04T08:18:51;99177.59;;;22.29;nan
31225;BME280;17847;31.524;74.366;2023-12-04T08:21:21;99174.41;;;22.37;nan
31225;BME280;17847;31.524;74.366;2023-12-04T08:23:50;99176.53;;;22.35;nan
31225;BME280;17847;31.524;74.366;2023-12-04T08:26:23;99182.38;;;22.22;nan
31225;BME280;17847;31.524;74.366;2023-12-04T08:28:53;99172.34;;;22.18;nan
31225;BME280;17847;31.524;74.366;2023-12-04T08:31:22;99173.81;;;22.30;nan
31225;BME280;17847;31.524;74.366;2023-12-04T08:33:52;99168.22;;;22.10;nan
31225;BME280;17847;31.524;74.366;2023-12-04T08:36:22;99168.69;;;22.02;nan
31225;BME280;17847;31.524;74.366;2023-12-04T08:38:52;99154.09;;;21.98;nan
31225;BME280;17847;31.524;74.366;2023-12-04T08:41:21;99157.97;;;22.07;nan
31225;BME280;17847;31.524;74.366;2023-12-04T08:43:51;99163.47;;;22.22;nan
31225;BME280;17847;31.524;74.366;2023-12-04T08:46:21;99151.22;;;22.42;nan
31225;BME280;17847;31.524;74.366;2023-12-04T08:48:50;99151.75;;;22.38;nan
31225;BME280;17847;31.524;74.366;2023-12-04T08:51:20;99154.41;;;22.33;nan
31225;BME280;17847;31.524;74.366;2023-12-04T08:53:49;99151.13;;;22.31;nan
31225;BME280;17847;31.524;74.366;2023-12-04T08:56:18;99151.84;;;22.17;nan
31225;BME280;17847;31.524;74.366;2023-12-04T08:58:55;99151.44;;;22.35;nan
31225;BME280;17847;31.524;74.366;2023-12-04T09:01:26;99141.94;;;22.27;nan
31225;BME280;17847;31.524;74.366;2023-12-04T09:03:56;99140.06;;;22.28;nan
31225;BME280;17847;31.524;74.366;2023-12-04T09:06:25;99130.84;;;22.24;nan
31225;BME280;17847;31.524;74.366;2023-12-04T09:08:57;99139.03;;;22.34;nan
31225;BME280;17847;31.524;74.366;2023-12-04T09:11:32;99130.19;;;22.44;nan
31225;BME280;17847;31.524;74.366;2023-12-04T09:14:01;99122.66;;;22.46;nan
31225;BME280;17847;31.524;74.366;2023-12-04T09:16:31;99124.53;;;22.45;nan
31225;BME280;17847;31.524;74.366;2023-12-04T09:19:00;99116.06;;;22.31;nan
31225;BME280;17847;31.524;74.366;2023-12-04T09:21:30;99115.81;;;22.33;nan
31225;BME280;17847;31.524;74.366;2023-12-04T09:24:00;99117.69;;;22.32;nan
31225;BME280;17847;31.524;74.366;2023-12-04T09:26:30;99119.28;;;22.28;nan
31225;BME280;17847;31.524;74.366;2023-12-04T09:28:59;99112.19;;;22.22;nan
31225;BME280;17847;31.524;74.366;2023-12-04T09:31:28;99110.25;;;22.13;nan
31225;BME280;17847;31.524;74.366;2023-12-04T09:33:58;99119.22;;;22.23;nan
31225;BME280;17847;31.524;74.366;2023-12-04T09:36:27;99111.81;;;22.09;nan
31225;BME280;17847;31.524;74.366;2023-12-04T09:38:58;99106.69;;;22.07;nan
31225;BME280;17847;31.524;74.366;2023-12-04T09:41:28;99101.06;;;22.14;nan
31225;BME280;17847;31.524;74.366;2023-12-04T09:43:57;99102.78;;;22.25;nan
31225;BME280;17847;31.524;74.366;2023-12-04T09:46:27;99103.56;;;22.20;nan
31225;BME280;17847;31.524;74.366;2023-12-04T09:48:57;99104.03;;;22.12;nan
31225;BME280;17847;31.524;74.366;2023-12-04T09:51:28;99101.06;;;22.14;nan
31225;BME280;17847;31.524;74.366;2023-12-04T09:54:01;99096.25;;;22.16;nan
31225;BME280;17847;31.524;74.366;2023-12-04T09:56:33;99092.97;;;22.14;nan
31225;BME280;17847;31.524;74.366;2023-12-04T09:59:06;99084.34;;;22.12;nan
31225;BME280;17847;31.524;74.366;2023-12-04T10:01:37;99083.53;;;22.11;nan
31225;BME280;17847;31.524;74.366;2023-12-04T10:04:08;99075.69;;;22.10;nan
31225;BME280;17847;31.524;74.366;2023-12-04T10:06:38;99065.31;;;21.97;nan
31225;BME280;17847;31.524;74.366;2023-12-04T10:09:08;99063.44;;;21.97;nan
31225;BME280;17847;31.524;74.366;2023-12-04T10:11:41;99062.34;;;21.93;nan
31225;BME280;17847;31.524;74.366;2023-12-04T10:14:29;99064.72;;;21.89;nan
31225;BME280;17847;31.524;74.366;2023-12-04T10:16:59;99067.94;;;21.91;nan
31225;BME280;17847;31.524;74.366;2023-12-04T10:19:29;99061.19;;;21.89;nan
31225;BME280;17847;31.524;74.366;2023-12-04T10:21:59;99061.38;;;21.77;nan
31225;BME280;17847;31.524;74.366;2023-12-04T10:24:36;99051.94;;;21.80;nan
31225;BME280;17847;31.524;74.366;2023-12-04T10:27:09;99051.09;;;21.74;nan
31225;BME280;17847;31.524;74.366;2023-12-04T10:29:44;99041.06;;;21.70;nan
31225;BME280;17847;31.524;74.366;2023-12-04T10:32:23;99045.59;;;21.64;nan
31225;BME280;17847;31.524;74.366;2023-12-04T10:34:55;99039.94;;;21.66;nan
31225;BME280;17847;31.524;74.366;2023-12-04T10:37:24;99039.34;;;21.59;nan
31225;BME280;17847;31.524;74.366;2023-12-04T10:39:54;99043.59;;;21.49;nan
31225;BME280;17847;31.524;74.366;2023-12-04T10:42:28;99027.34;;;21.44;nan
31225;BME280;17847;31.524;74.366;2023-12-04T10:44:59;99027.25;;;21.34;nan
31225;BME280;17847;31.524;74.366;2023-12-04T10:47:29;99032.28;;;21.26;nan
31225;BME280;17847;31.524;74.366;2023-12-04T10:50:03;99028.97;;;21.19;nan
31225;BME280;17847;31.524;74.366;2023-12-04T10:52:33;99023.59;;;21.19;nan
31225;BME280;17847;31.524;74.366;2023-12-04T10:55:06;99031.81;;;21.12;nan
31225;BME280;17847;31.524;74.366;2023-12-04T10:57:37;99033.03;;;20.99;nan
31225;BME280;17847;31.524;74.366;2023-12-04T11:00:08;99023.22;;;20.88;nan
31225;BME280;17847;31.524;74.366;2023-12-04T11:02:43;99019.88;;;20.81;nan
31225;BME280;17847;31.524;74.366;2023-12-04T11:05:16;99017.94;;;20.77;nan
31225;BME280;17847;31.524;74.366;2023-12-04T11:07:57;99028.41;;;20.73;nan
31225;BME280;17847;31.524;74.366;2023-12-04T11:10:57;99021.31;;;20.67;nan
31225;BME280;17847;31.524;74.366;2023-12-04T11:13:31;99028.53;;;20.61;nan
31225;BME280;17847;31.524;74.366;2023-12-04T11:16:07;99027.75;;;20.44;nan
31225;BME280;17847;31.524;74.366;2023-12-04T11:18:43;99030.38;;;20.39;nan
31225;BME280;17847;31.524;74.366;2023-12-04T11:21:13;99021.81;;;20.26;nan
31225;BME280;17847;31.524;74.366;2023-12-04T11:23:44;99021.75;;;20.04;nan
31225;BME280;17847;31.524;74.366;2023-12-04T11:26:15;99016.84;;;20.01;nan
31225;BME280;17847;31.524;74.366;2023-12-04T11:28:45;99010.41;;;20.02;nan
31225;BME280;17847;31.524;74.366;2023-12-04T11:31:15;99003.59;;;19.94;nan
31225;BME280;17847;31.524;74.366;2023-12-04T11:33:45;99012.06;;;19.86;nan
31225;BME280;17847;31.524;74.366;2023-12-04T11:36:15;99021.19;;;19.85;nan
31225;BME280;17847;31.524;74.366;2023-12-04T11:38:47;99029.16;;;19.80;nan
31225;BME280;17847;31.524;74.366;2023-12-04T11:41:22;99020.84;;;19.65;nan
31225;BME280;17847;31.524;74.366;2023-12-04T11:43:57;99017.19;;;19.54;nan
31225;BME280;17847;31.524;74.366;2023-12-04T11:46:28;99024.66;;;19.52;nan
31225;BME280;17847;31.524;74.366;2023-12-04T11:52:34;99020.88;;;19.37;nan
31225;BME280;17847;31.524;74.366;2023-12-04T11:55:05;99033.47;;;19.36;nan
31225;BME280;17847;31.524;74.366;2023-12-04T11:57:36;99031.91;;;19.23;nan
31225;BME280;17847;31.524;74.366;2023-12-04T12:05:43;99035.00;;;19.04;nan
31225;BME280;17847;31.524;74.366;2023-12-04T12:08:13;99035.59;;;18.94;nan
31225;BME280;17847;31.524;74.366;2023-12-04T12:10:43;99035.31;;;18.79;nan
31225;BME280;17847;31.524;74.366;2023-12-04T12:13:14;99031.81;;;18.78;nan
31225;BME280;17847;31.524;74.366;2023-12-04T12:15:47;99035.53;;;18.77;nan
31225;BME280;17847;31.524;74.366;2023-12-04T12:18:21;99034.16;;;18.63;nan
31225;BME280;17847;31.524;74.366;2023-12-04T12:20:55;99035.69;;;18.59;nan
31225;BME280;17847;31.524;74.366;2023-12-04T12:23:26;99023.59;;;18.57;nan
31225;BME280;17847;31.524;74.366;2023-12-04T12:25:56;99027.19;;;18.62;nan
31225;BME280;17847;31.524;74.366;2023-12-04T12:28:29;99024.16;;;18.59;nan
31225;BME280;17847;31.524;74.366;2023-12-04T12:31:02;99034.88;;;18.47;nan
31225;BME280;17847;31.524;74.366;2023-12-04T12:33:32;99037.09;;;18.38;nan
31225;BME280;17847;31.524;74.366;2023-12-04T12:36:02;99033.16;;;18.53;nan
31225;BME280;17847;31.524;74.366;2023-12-04T12:38:32;99044.91;;;18.40;nan
31225;BME280;17847;31.524;74.366;2023-12-04T12:41:09;99043.75;;;18.36;nan
31225;BME280;17847;31.524;74.366;2023-12-04T12:43:40;99041.78;;;18.31;nan
31225;BME280;17847;31.524;74.366;2023-12-04T12:46:10;99052.13;;;18.28;nan
31225;BME280;17847;31.524;74.366;2023-12-04T12:48:42;99053.91;;;18.22;nan
31225;BME280;17847;31.524;74.366;2023-12-04T12:51:13;99055.88;;;18.27;nan
31225;BME280;17847;31.524;74.366;2023-12-04T12:53:44;99062.28;;;18.26;nan
31225;BME280;17847;31.524;74.366;2023-12-04T12:56:18;99060.53;;;18.20;nan
31225;BME280;17847;31.524;74.366;2023-12-04T12:58:48;99065.19;;;18.01;nan
31225;BME280;17847;31.524;74.366;2023-12-04T13:01:17;99058.53;;;17.92;nan
31225;BME280;17847;31.524;74.366;2023-12-04T13:03:47;99055.16;;;17.97;nan
31225;BME280;17847;31.524;74.366;2023-12-04T13:06:17;99061.56;;;18.07;nan
31225;BME280;17847;31.524;74.366;2023-12-04T13:08:48;99061.09;;;17.99;nan
31225;BME280;17847;31.524;74.366;2023-12-04T13:11:17;99061.47;;;18.14;nan
31225;BME280;17847;31.524;74.366;2023-12-04T13:13:47;99075.06;;;17.89;nan
31225;BME280;17847;31.524;74.366;2023-12-04T13:16:17;99071.06;;;17.80;nan
31225;BME280;17847;31.524;74.366;2023-12-04T13:18:46;99074.91;;;17.72;nan
31225;BME280;17847;31.524;74.366;2023-12-04T13:21:16;99079.56;;;17.65;nan
31225;BME280;17847;31.524;74.366;2023-12-04T13:23:45;99078.50;;;17.66;nan
31225;BME280;17847;31.524;74.366;2023-12-04T13:26:16;99080.13;;;17.67;nan
31225;BME280;17847;31.524;74.366;2023-12-04T13:28:46;99082.47;;;17.64;nan
31225;BME280;17847;31.524;74.366;2023-12-04T13:31:17;99083.34;;;17.58;nan
31225;BME280;17847;31.524;74.366;2023-12-04T13:33:46;99087.47;;;17.60;nan
31225;BME280;17847;31.524;74.366;2023-12-04T13:36:16;99085.81;;;17.59;nan